createdAt,value
2022-09-09T00:02:02.119Z,15.00
2022-09-09T00:04:37.266Z,15.00
2022-09-09T00:10:14.077Z,14.80
2022-09-09T00:12:52.781Z,14.80
2022-09-09T00:15:30.315Z,14.80
2022-09-09T00:18:04.808Z,14.80
2022-09-09T00:20:39.642Z,14.70
2022-09-09T00:23:14.211Z,14.70
2022-09-09T00:25:52.382Z,14.70
2022-09-09T00:28:24.946Z,14.60
2022-09-09T00:30:53.204Z,14.60
2022-09-09T00:33:26.262Z,14.60
2022-09-09T00:35:58.654Z,14.60
2022-09-09T00:38:34.647Z,14.50
2022-09-09T00:41:09.773Z,14.50
2022-09-09T00:43:41.360Z,14.50
2022-09-09T00:46:33.610Z,14.50
2022-09-09T00:49:11.976Z,14.50
2022-09-09T00:51:51.387Z,14.50
2022-09-09T00:54:30.122Z,14.40
2022-09-09T00:57:08.587Z,14.40
2022-09-09T00:59:48.663Z,14.40
2022-09-09T01:02:27.802Z,14.40
2022-09-09T01:05:02.253Z,14.40
2022-09-09T01:07:30.334Z,14.30
2022-09-09T01:09:59.553Z,14.30
2022-09-09T01:12:34.610Z,14.30
2022-09-09T01:15:11.184Z,14.30
2022-09-09T01:17:48.427Z,14.30
2022-09-09T01:20:22.986Z,14.20
2022-09-09T01:23:16.981Z,14.20
2022-09-09T01:26:24.483Z,14.20
2022-09-09T01:28:54.815Z,14.10
2022-09-09T01:31:25.499Z,14.10
2022-09-09T01:33:53.689Z,14.10
2022-09-09T01:36:28.460Z,14.00
2022-09-09T01:38:56.726Z,14.00
2022-09-09T01:41:26.521Z,14.10
2022-09-09T01:43:57.069Z,14.10
2022-09-09T01:46:25.628Z,14.10
2022-09-09T01:48:55.243Z,14.10
2022-09-09T01:51:24.206Z,14.00
2022-09-09T01:53:52.525Z,14.00
2022-09-09T01:56:34.948Z,14.00
2022-09-09T01:59:15.584Z,14.00
2022-09-09T02:02:03.991Z,14.00
2022-09-09T02:04:40.119Z,14.10
2022-09-09T02:07:16.433Z,14.00
2022-09-09T02:09:49.354Z,14.00
2022-09-09T02:12:22.400Z,14.00
2022-09-09T02:14:57.332Z,14.10
2022-09-09T02:17:29.821Z,14.10
2022-09-09T02:20:04.816Z,14.10
2022-09-09T02:22:36.665Z,14.10
2022-09-09T02:25:06.867Z,14.20
2022-09-09T02:27:36.901Z,14.20
2022-09-09T02:30:07.162Z,14.20
2022-09-09T02:32:38.190Z,14.20
2022-09-09T02:35:11.518Z,14.30
2022-09-09T02:37:42.636Z,14.30
2022-09-09T02:40:14.405Z,14.30
2022-09-09T02:42:45.470Z,14.30
2022-09-09T02:45:16.285Z,14.30
2022-09-09T02:47:51.177Z,14.40
2022-09-09T02:50:24.834Z,14.30
2022-09-09T02:53:02.262Z,14.40
2022-09-09T02:55:40.946Z,14.40
2022-09-09T02:58:13.176Z,14.40
2022-09-09T03:00:42.497Z,14.40
2022-09-09T03:03:11.195Z,14.30
2022-09-09T03:05:39.808Z,14.30
2022-09-09T03:08:08.178Z,14.30
2022-09-09T03:10:38.036Z,14.20
2022-09-09T03:13:06.928Z,14.20
2022-09-09T03:15:37.024Z,14.30
2022-09-09T03:18:05.332Z,14.20
2022-09-09T03:20:33.601Z,14.20
2022-09-09T03:23:02.566Z,14.20
2022-09-09T03:25:31.029Z,14.20
2022-09-09T03:27:59.171Z,14.20
2022-09-09T03:30:29.488Z,14.20
2022-09-09T03:32:59.308Z,14.20
2022-09-09T03:35:27.495Z,14.30
2022-09-09T03:37:56.728Z,14.30
2022-09-09T03:40:24.874Z,14.50
2022-09-09T03:42:52.875Z,14.40
2022-09-09T03:45:21.077Z,14.40
2022-09-09T03:47:49.080Z,14.40
2022-09-09T03:50:19.527Z,14.40
2022-09-09T03:52:47.775Z,14.40
2022-09-09T03:55:16.003Z,14.40
2022-09-09T03:57:44.133Z,14.40
2022-09-09T04:00:13.085Z,14.50
2022-09-09T04:02:41.152Z,14.40
2022-09-09T04:05:10.358Z,14.40
2022-09-09T04:07:39.762Z,14.30
2022-09-09T04:10:09.461Z,14.40
2022-09-09T04:12:37.518Z,14.40
2022-09-09T04:15:06.330Z,14.40
2022-09-09T04:17:34.421Z,14.30
2022-09-09T04:20:03.373Z,14.30
2022-09-09T04:22:31.439Z,14.30
2022-09-09T04:25:00.928Z,14.20
2022-09-09T04:27:28.996Z,14.20
2022-09-09T04:29:57.718Z,14.30
2022-09-09T04:32:28.151Z,14.30
2022-09-09T04:34:56.238Z,14.30
2022-09-09T04:37:25.897Z,14.30
2022-09-09T04:39:54.218Z,14.30
2022-09-09T04:42:23.983Z,14.20
2022-09-09T04:44:52.073Z,14.20
2022-09-09T04:47:20.177Z,14.20
2022-09-09T04:49:48.480Z,14.20
2022-09-09T04:52:18.305Z,14.20
2022-09-09T04:54:46.976Z,14.20
2022-09-09T04:57:18.651Z,14.10
2022-09-09T04:59:49.107Z,14.10
2022-09-09T05:02:17.234Z,14.10
2022-09-09T05:04:45.291Z,14.10
2022-09-09T05:07:14.558Z,14.20
2022-09-09T05:09:42.722Z,14.20
2022-09-09T05:12:10.886Z,14.30
2022-09-09T05:14:39.179Z,14.30
2022-09-09T05:17:08.646Z,14.20
2022-09-09T05:19:36.783Z,14.30
2022-09-09T05:22:05.419Z,14.30
2022-09-09T05:24:34.313Z,14.20
2022-09-09T05:27:03.365Z,14.20
2022-09-09T05:29:34.400Z,14.10
2022-09-09T05:32:02.902Z,14.00
2022-09-09T05:34:32.404Z,14.00
2022-09-09T05:37:00.472Z,14.00
2022-09-09T05:39:28.463Z,14.00
2022-09-09T05:41:56.587Z,14.00
2022-09-09T05:44:28.546Z,13.90
2022-09-09T05:46:56.608Z,14.00
2022-09-09T05:49:24.708Z,13.90
2022-09-09T05:51:54.147Z,14.00
2022-09-09T05:54:22.310Z,14.00
2022-09-09T05:56:52.307Z,14.00
2022-09-09T05:59:20.451Z,14.10
2022-09-09T06:01:48.721Z,14.20
2022-09-09T06:04:17.155Z,14.20
2022-09-09T06:06:45.179Z,14.20
2022-09-09T06:09:14.606Z,14.30
2022-09-09T06:11:43.105Z,14.30
2022-09-09T06:14:11.132Z,14.40
2022-09-09T06:16:40.148Z,14.40
2022-09-09T06:19:08.308Z,14.40
2022-09-09T06:21:38.290Z,14.40
2022-09-09T06:24:08.336Z,14.40
2022-09-09T06:26:42.125Z,14.40
2022-09-09T06:29:10.745Z,14.50
2022-09-09T06:31:39.657Z,14.40
2022-09-09T06:34:09.202Z,14.50
2022-09-09T06:36:39.770Z,14.40
2022-09-09T06:39:14.137Z,14.40
2022-09-09T06:41:44.604Z,14.40
2022-09-09T06:44:13.739Z,14.30
2022-09-09T06:46:42.011Z,14.30
2022-09-09T06:49:10.833Z,14.40
2022-09-09T06:51:43.637Z,14.40
2022-09-09T06:54:12.630Z,14.40
2022-09-09T06:56:43.048Z,14.40
2022-09-09T06:59:13.328Z,14.40
2022-09-09T07:01:42.935Z,14.40
2022-09-09T07:04:12.271Z,14.40
2022-09-09T07:06:42.072Z,14.40
2022-09-09T07:09:12.708Z,14.50
2022-09-09T07:11:43.366Z,14.40
2022-09-09T07:14:14.564Z,14.40
2022-09-09T07:16:43.016Z,14.40
2022-09-09T07:19:11.633Z,14.30
2022-09-09T07:21:41.369Z,14.30
2022-09-09T07:24:11.317Z,14.30
2022-09-09T07:26:40.432Z,14.40
2022-09-09T07:29:08.533Z,14.40
2022-09-09T07:31:41.002Z,14.50
2022-09-09T07:34:09.609Z,14.50
2022-09-09T07:36:40.146Z,14.40
2022-09-09T07:39:11.007Z,14.50
2022-09-09T07:41:41.044Z,14.60
2022-09-09T07:44:11.777Z,14.60
2022-09-09T07:46:42.652Z,14.60
2022-09-09T07:49:11.768Z,14.60
2022-09-09T07:51:41.731Z,14.70
2022-09-09T07:54:12.085Z,14.70
2022-09-09T07:56:41.381Z,14.80
2022-09-09T07:59:10.566Z,14.90
2022-09-09T08:01:42.085Z,15.10
2022-09-09T08:04:16.511Z,15.20
2022-09-09T08:06:47.429Z,15.40
2022-09-09T08:09:16.441Z,15.60
2022-09-09T08:11:45.697Z,15.50
2022-09-09T08:14:14.687Z,15.60
2022-09-09T08:16:46.240Z,15.80
2022-09-09T08:19:16.353Z,15.90
2022-09-09T08:21:46.188Z,15.90
2022-09-09T08:24:16.006Z,15.80
2022-09-09T08:26:45.920Z,15.80
2022-09-09T08:29:15.769Z,15.80
2022-09-09T08:31:47.941Z,15.80
2022-09-09T08:34:16.698Z,15.70
2022-09-09T08:36:46.687Z,15.70
2022-09-09T08:39:16.340Z,15.60
2022-09-09T08:42:03.882Z,15.60
2022-09-09T08:44:49.470Z,15.60
2022-09-09T08:47:31.768Z,15.70
2022-09-09T08:50:22.594Z,15.70
2022-09-09T08:52:58.370Z,15.80
2022-09-09T08:55:37.794Z,15.90
2022-09-09T08:58:12.612Z,16.00
2022-09-09T09:00:54.219Z,16.00
2022-09-09T09:03:35.314Z,16.10
2022-09-09T09:06:08.778Z,16.30
2022-09-09T09:08:46.286Z,16.40
2022-09-09T09:11:14.486Z,16.60
2022-09-09T09:13:47.248Z,16.90
2022-09-09T09:16:24.205Z,17.20
2022-09-09T09:18:54.082Z,17.30
2022-09-09T09:21:29.070Z,17.10
2022-09-09T09:24:00.704Z,16.90
2022-09-09T09:26:33.497Z,16.80
2022-09-09T09:29:11.422Z,16.80
2022-09-09T09:31:39.486Z,16.90
2022-09-09T09:34:11.280Z,17.10
2022-09-09T09:36:45.656Z,17.40
2022-09-09T09:42:17.835Z,18.00
2022-09-09T09:44:51.394Z,18.20
2022-09-09T09:47:22.106Z,18.50
2022-09-09T09:50:00.499Z,18.50
2022-09-09T09:52:30.425Z,18.50
2022-09-09T09:55:05.233Z,18.80
2022-09-09T09:57:35.935Z,18.70
2022-09-09T10:00:10.253Z,18.50
2022-09-09T10:02:41.769Z,18.90
2022-09-09T10:05:16.843Z,18.80
2022-09-09T10:07:46.937Z,19.10
2022-09-09T10:10:22.824Z,19.60
2022-09-09T10:13:02.809Z,20.00
2022-09-09T10:15:40.692Z,19.80
2022-09-09T10:18:36.921Z,19.90
2022-09-09T10:21:16.671Z,20.20
2022-09-09T10:24:09.476Z,20.50
2022-09-09T10:26:47.541Z,20.60
2022-09-09T10:29:45.401Z,20.60
2022-09-09T10:32:34.456Z,20.00
2022-09-09T10:35:11.176Z,19.90
2022-09-09T10:38:07.659Z,19.70
2022-09-09T10:40:40.404Z,20.10
2022-09-09T10:43:22.269Z,20.40
2022-09-09T10:45:59.818Z,20.80
2022-09-09T10:48:39.410Z,20.90
2022-09-09T10:51:35.158Z,20.70
2022-09-09T10:54:23.858Z,21.10
2022-09-09T10:56:58.077Z,20.50
2022-09-09T10:59:28.331Z,19.80
2022-09-09T11:02:02.014Z,19.70
2022-09-09T11:04:35.270Z,19.50
2022-09-09T11:07:11.928Z,19.10
2022-09-09T11:09:45.013Z,19.10
2022-09-09T11:12:20.375Z,19.00
2022-09-09T11:14:52.469Z,19.10
2022-09-09T11:17:24.067Z,19.10
2022-09-09T11:19:52.855Z,19.00
2022-09-09T11:22:28.334Z,19.10
2022-09-09T11:25:02.278Z,19.10
2022-09-09T11:27:35.308Z,19.10
2022-09-09T11:30:44.196Z,19.00
2022-09-09T11:33:44.404Z,19.20
2022-09-09T11:36:40.982Z,19.30
2022-09-09T11:39:27.712Z,19.20
2022-09-09T11:42:09.001Z,19.00
2022-09-09T11:47:17.651Z,18.90
2022-09-09T11:49:46.743Z,18.70
2022-09-09T11:52:21.666Z,18.60
2022-09-09T11:54:51.399Z,18.60
2022-09-09T11:57:29.297Z,18.60
2022-09-09T11:59:57.628Z,18.60
2022-09-09T12:02:27.668Z,18.40
2022-09-09T12:05:02.794Z,18.20
2022-09-09T12:07:41.039Z,18.10
2022-09-09T12:10:25.890Z,18.00
2022-09-09T12:12:57.726Z,17.90
2022-09-09T12:15:29.863Z,17.90
2022-09-09T12:18:03.297Z,17.90
2022-09-09T12:20:37.905Z,17.90
2022-09-09T12:23:18.449Z,18.50
2022-09-09T12:26:32.116Z,19.10
2022-09-09T12:29:21.236Z,19.60
2022-09-09T12:31:57.551Z,19.80
2022-09-09T12:34:36.939Z,20.10
2022-09-09T12:37:11.201Z,20.00
2022-09-09T12:39:43.637Z,20.10
2022-09-09T12:42:19.741Z,20.00
2022-09-09T12:44:56.655Z,19.70
2022-09-09T12:47:37.021Z,20.00
2022-09-09T12:50:05.631Z,19.80
2022-09-09T12:52:37.738Z,20.20
2022-09-09T12:55:09.468Z,20.30
2022-09-09T12:57:39.498Z,20.30
2022-09-09T13:00:17.879Z,20.50
2022-09-09T13:02:52.507Z,20.50
2022-09-09T13:05:24.569Z,20.60
2022-09-09T13:07:52.749Z,20.70
2022-09-09T13:10:36.772Z,20.20
2022-09-09T13:13:17.147Z,20.40
2022-09-09T13:15:53.862Z,20.10
2022-09-09T13:18:25.400Z,19.80
2022-09-09T13:20:53.930Z,20.00
2022-09-09T13:23:23.188Z,20.20
2022-09-09T13:25:58.585Z,20.40
2022-09-09T13:28:33.859Z,20.80
2022-09-09T13:31:08.137Z,20.30
2022-09-09T13:33:38.366Z,19.90
2022-09-09T13:36:09.414Z,19.30
2022-09-09T13:38:40.446Z,19.20
2022-09-09T13:41:10.677Z,18.90
2022-09-09T13:43:44.029Z,18.70
2022-09-09T13:46:30.102Z,18.50
2022-09-09T13:48:59.225Z,18.40
2022-09-09T13:51:36.079Z,18.30
2022-09-09T13:54:04.183Z,18.20
2022-09-09T13:56:32.910Z,18.20
2022-09-09T13:59:01.575Z,18.10
2022-09-09T14:01:31.086Z,18.00
2022-09-09T14:03:59.944Z,17.60
2022-09-09T14:06:28.537Z,17.50
2022-09-09T14:08:56.673Z,17.20
2022-09-09T14:11:24.998Z,17.10
2022-09-09T14:13:53.186Z,17.30
2022-09-09T14:16:21.544Z,17.60
2022-09-09T14:18:51.650Z,17.90
2022-09-09T14:21:19.754Z,17.90
2022-09-09T14:23:47.941Z,17.90
2022-09-09T14:26:16.098Z,17.90
2022-09-09T14:28:59.815Z,18.20
2022-09-09T14:31:28.237Z,18.30
2022-09-09T14:33:57.862Z,18.70
2022-09-09T14:36:26.941Z,18.90
2022-09-09T14:38:55.089Z,19.40
2022-09-09T14:41:24.509Z,19.40
2022-09-09T14:43:53.325Z,19.50
2022-09-09T14:46:22.497Z,19.10
2022-09-09T14:48:50.828Z,19.00
2022-09-09T14:51:23.275Z,19.20
2022-09-09T14:53:55.032Z,18.90
2022-09-09T14:56:25.979Z,18.80
2022-09-09T14:58:56.300Z,19.10
2022-09-09T15:01:25.512Z,19.30
2022-09-09T15:03:55.958Z,19.40
2022-09-09T15:06:26.281Z,19.80
2022-09-09T15:08:55.647Z,19.80
2022-09-09T15:11:25.609Z,19.60
2022-09-09T15:13:55.500Z,19.10
2022-09-09T15:16:26.774Z,18.90
2022-09-09T15:18:56.328Z,18.70
2022-09-09T15:21:29.885Z,18.50
2022-09-09T15:23:58.456Z,18.30
2022-09-09T15:26:28.233Z,18.20
2022-09-09T15:28:56.664Z,18.10
2022-09-09T15:31:30.323Z,17.90
2022-09-09T15:34:02.747Z,17.90
2022-09-09T15:36:34.193Z,17.90
2022-09-09T15:39:03.336Z,17.70
2022-09-09T15:41:32.785Z,17.60
2022-09-09T15:44:01.683Z,17.50
2022-09-09T15:46:33.391Z,17.30
2022-09-09T15:49:06.811Z,17.40
2022-09-09T15:51:44.724Z,17.30
2022-09-09T15:54:14.598Z,17.20
2022-09-09T15:56:43.525Z,17.20
2022-09-09T15:59:12.387Z,17.20
2022-09-09T16:01:41.847Z,17.20
2022-09-09T16:04:10.676Z,17.10
2022-09-09T16:06:40.496Z,17.10
2022-09-09T16:09:11.092Z,17.10
2022-09-09T16:11:41.568Z,17.10
2022-09-09T16:14:10.024Z,17.20
2022-09-09T16:16:38.451Z,17.20
2022-09-09T16:19:10.441Z,17.10
2022-09-09T16:21:42.070Z,17.00
2022-09-09T16:24:12.161Z,17.00
2022-09-09T16:26:44.052Z,17.00
2022-09-09T16:29:12.303Z,17.00
2022-09-09T16:31:41.537Z,17.00
2022-09-09T16:34:10.098Z,16.90
2022-09-09T16:36:41.858Z,16.90
2022-09-09T16:39:12.338Z,16.90
2022-09-09T16:41:41.533Z,16.80
2022-09-09T16:44:11.785Z,16.80
2022-09-09T16:46:42.747Z,16.70
2022-09-09T16:49:12.657Z,16.70
2022-09-09T16:51:43.558Z,16.60
2022-09-09T16:54:13.243Z,16.50
2022-09-09T16:56:43.446Z,16.40
2022-09-09T16:59:13.540Z,16.30
2022-09-09T17:01:44.252Z,16.20
2022-09-09T17:04:17.238Z,16.20
2022-09-09T17:06:48.711Z,16.10
2022-09-09T17:09:16.908Z,16.00
2022-09-09T17:11:46.384Z,15.90
2022-09-09T17:14:17.973Z,15.90
2022-09-09T17:16:47.735Z,15.90
2022-09-09T17:19:16.347Z,15.90
2022-09-09T17:22:15.596Z,15.80
2022-09-09T17:24:36.388Z,15.70
2022-09-09T17:27:04.847Z,15.60
2022-09-09T17:29:33.039Z,15.50
2022-09-09T17:32:01.190Z,15.50
2022-09-09T17:34:29.446Z,15.40
2022-09-09T17:36:59.570Z,15.30
2022-09-09T17:39:27.834Z,15.20
2022-09-09T17:41:56.096Z,15.10
2022-09-09T17:44:24.415Z,15.10
2022-09-09T17:46:52.590Z,15.00
2022-09-09T17:49:20.748Z,15.00
2022-09-09T17:51:49.010Z,15.00
2022-09-09T17:54:20.396Z,14.90
2022-09-09T17:56:49.947Z,14.90
2022-09-09T17:59:20.594Z,14.80
2022-09-09T18:01:51.301Z,14.80
2022-09-09T18:04:20.816Z,14.70
2022-09-09T18:06:51.140Z,14.70
2022-09-09T18:09:24.105Z,14.80
2022-09-09T18:12:00.315Z,14.70
2022-09-09T18:14:31.325Z,14.70
2022-09-09T18:16:59.970Z,14.70
2022-09-09T18:19:31.093Z,14.70
2022-09-09T18:22:02.370Z,14.60
2022-09-09T18:24:32.968Z,14.60
2022-09-09T18:27:01.869Z,14.50
2022-09-09T18:29:29.974Z,14.50
2022-09-09T18:31:58.379Z,14.40
2022-09-09T18:34:28.784Z,14.30
2022-09-09T18:36:57.074Z,14.30
2022-09-09T18:39:27.553Z,14.30
2022-09-09T18:42:00.488Z,14.30
2022-09-09T18:44:31.838Z,14.20
2022-09-09T18:47:00.623Z,14.20
2022-09-09T18:49:29.292Z,14.20
2022-09-09T18:51:57.986Z,14.20
2022-09-09T18:54:29.696Z,14.20
2022-09-09T18:57:00.801Z,14.20
2022-09-09T18:59:29.855Z,14.10
2022-09-09T19:01:58.359Z,14.10
2022-09-09T19:04:27.441Z,14.00
2022-09-09T19:06:58.699Z,13.90
2022-09-09T19:09:29.086Z,13.90
2022-09-09T19:11:59.900Z,13.80
2022-09-09T19:14:28.535Z,13.80
2022-09-09T19:16:56.912Z,13.80
2022-09-09T19:19:27.283Z,13.70
2022-09-09T19:21:57.827Z,13.70
2022-09-09T19:24:28.453Z,13.70
2022-09-09T19:27:01.847Z,13.70
2022-09-09T19:29:32.473Z,13.70
2022-09-09T19:32:42.403Z,13.60
2022-09-09T19:34:50.770Z,13.50
2022-09-09T19:37:19.443Z,13.50
2022-09-09T19:39:48.125Z,13.50
2022-09-09T19:42:17.637Z,13.40
2022-09-09T19:44:46.482Z,13.40
2022-09-09T19:47:15.161Z,13.40
2022-09-09T19:49:47.037Z,13.40
2022-09-09T19:52:15.952Z,13.40
2022-09-09T19:54:44.410Z,13.40
2022-09-09T19:57:12.536Z,13.30
2022-09-09T19:59:41.971Z,13.30
2022-09-09T20:02:13.279Z,13.30
2022-09-09T20:04:41.444Z,13.30
2022-09-09T20:07:09.945Z,13.30
2022-09-09T20:09:38.049Z,13.20
2022-09-09T20:12:06.789Z,13.20
2022-09-09T20:14:39.151Z,13.20
2022-09-09T20:17:09.137Z,13.10
2022-09-09T20:19:37.419Z,13.10
2022-09-09T20:22:05.866Z,13.10
2022-09-09T20:24:33.851Z,13.10
2022-09-09T20:27:02.096Z,13.10
2022-09-09T20:29:30.156Z,13.00
2022-09-09T20:31:58.831Z,13.00
2022-09-09T20:34:30.035Z,13.00
2022-09-09T20:36:59.384Z,13.00
2022-09-09T20:39:27.896Z,13.00
2022-09-09T20:41:56.017Z,12.90
2022-09-09T20:44:25.161Z,12.90
2022-09-09T20:46:55.511Z,12.90
2022-09-09T20:49:25.731Z,12.90
2022-09-09T20:51:55.558Z,12.90
2022-09-09T20:54:25.929Z,12.90
2022-09-09T20:56:55.533Z,12.90
2022-09-09T20:59:25.475Z,12.90
2022-09-09T21:01:53.650Z,12.90
2022-09-09T21:04:22.842Z,12.90
2022-09-09T21:06:51.616Z,12.90
2022-09-09T21:09:22.807Z,12.90
2022-09-09T21:11:50.989Z,12.90
2022-09-09T21:14:19.066Z,12.80
2022-09-09T21:16:47.092Z,12.80
2022-09-09T21:19:15.166Z,12.90
2022-09-09T21:21:43.210Z,12.80
2022-09-09T21:24:11.332Z,12.80
2022-09-09T21:26:40.714Z,12.80
2022-09-09T21:29:08.838Z,12.80
2022-09-09T21:31:37.430Z,12.80
2022-09-09T21:34:05.792Z,12.80
2022-09-09T21:36:33.840Z,12.80
2022-09-09T21:39:01.876Z,12.80
2022-09-09T21:41:29.885Z,12.80
2022-09-09T21:43:59.282Z,12.80
2022-09-09T21:46:28.227Z,12.80
2022-09-09T21:48:57.479Z,12.80
2022-09-09T21:51:25.718Z,12.80
2022-09-09T21:53:56.189Z,12.80
2022-09-09T21:56:24.743Z,12.80
2022-09-09T21:58:56.967Z,12.80
2022-09-09T22:01:26.884Z,12.80
2022-09-09T22:03:55.079Z,12.80
2022-09-09T22:06:23.142Z,12.80
2022-09-09T22:08:51.857Z,12.80
2022-09-09T22:11:23.004Z,12.80
2022-09-09T22:13:53.302Z,12.90
2022-09-09T22:16:24.242Z,12.90
2022-09-09T22:18:56.810Z,12.90
2022-09-09T22:21:26.322Z,12.80
2022-09-09T22:23:59.221Z,12.80
2022-09-09T22:26:29.044Z,12.80
2022-09-09T22:29:01.628Z,12.80
2022-09-09T22:31:29.741Z,12.80
2022-09-09T22:33:59.377Z,12.80
2022-09-09T22:36:27.543Z,12.80
2022-09-09T22:38:56.821Z,12.80
2022-09-09T22:41:25.521Z,12.80
2022-09-09T22:43:53.734Z,12.80
2022-09-09T22:46:22.283Z,12.80
2022-09-09T22:48:50.656Z,12.90
2022-09-09T22:51:20.010Z,12.90
2022-09-09T22:53:48.090Z,12.90
2022-09-09T22:56:18.141Z,12.90
2022-09-09T22:58:47.209Z,12.90
2022-09-09T23:01:16.814Z,12.90
2022-09-09T23:03:47.157Z,12.90
2022-09-09T23:06:21.961Z,12.90
2022-09-09T23:08:55.916Z,12.90
2022-09-09T23:11:27.376Z,13.00
2022-09-09T23:14:00.216Z,13.10
2022-09-09T23:16:30.031Z,13.10
2022-09-09T23:18:58.065Z,13.10
2022-09-09T23:21:30.527Z,13.10
2022-09-09T23:24:00.993Z,13.10
2022-09-09T23:26:30.010Z,13.10
2022-09-09T23:28:59.573Z,13.10
2022-09-09T23:31:29.402Z,13.10
2022-09-09T23:33:58.188Z,13.10
2022-09-09T23:36:29.661Z,13.10
2022-09-09T23:39:02.098Z,13.20
2022-09-09T23:41:30.852Z,13.20
2022-09-09T23:43:59.015Z,13.20
2022-09-09T23:46:28.916Z,13.20
2022-09-09T23:48:58.392Z,13.20
2022-09-09T23:51:30.459Z,13.20
2022-09-09T23:54:01.918Z,13.20
2022-09-09T23:56:32.619Z,13.20
2022-09-09T23:59:00.897Z,13.20
